sensor_id;sensor_type;location;lat;lon;timestamp;temperature;humidity
25668;DHT22;18003;-33.830;151.202;2023-05-20T00:01:49;14.20;99.90
25668;DHT22;18003;-33.830;151.202;2023-05-20T00:04:19;14.20;99.90
25668;DHT22;18003;-33.830;151.202;2023-05-20T00:06:49;14.20;99.90
25668;DHT22;18003;-33.830;151.202;2023-05-20T00:09:19;14.20;99.90
25668;DHT22;18003;-33.830;151.202;2023-05-20T00:11:50;14.20;99.90
25668;DHT22;18003;-33.830;151.202;2023-05-20T00:14:20;14.30;99.90
25668;DHT22;18003;-33.830;151.202;2023-05-20T00:16:50;14.30;99.90
25668;DHT22;18003;-33.830;151.202;2023-05-20T00:19:20;14.30;99.90
25668;DHT22;18003;-33.830;151.202;2023-05-20T00:21:50;14.30;99.90
25668;DHT22;18003;-33.830;151.202;2023-05-20T00:24:20;14.30;99.90
25668;DHT22;18003;-33.830;151.202;2023-05-20T00:26:50;14.30;99.90
25668;DHT22;18003;-33.830;151.202;2023-05-20T00:29:21;14.30;99.90
25668;DHT22;18003;-33.830;151.202;2023-05-20T00:31:51;14.40;99.90
25668;DHT22;18003;-33.830;151.202;2023-05-20T00:34:25;14.40;99.90
25668;DHT22;18003;-33.830;151.202;2023-05-20T00:36:52;14.40;99.90
25668;DHT22;18003;-33.830;151.202;2023-05-20T00:39:23;14.40;99.90
25668;DHT22;18003;-33.830;151.202;2023-05-20T00:41:54;14.40;99.90
25668;DHT22;18003;-33.830;151.202;2023-05-20T00:44:25;14.40;99.90
25668;DHT22;18003;-33.830;151.202;2023-05-20T00:46:55;14.50;99.90
25668;DHT22;18003;-33.830;151.202;2023-05-20T00:49:25;14.50;99.90
25668;DHT22;18003;-33.830;151.202;2023-05-20T00:51:55;14.50;99.90
25668;DHT22;18003;-33.830;151.202;2023-05-20T00:54:26;14.50;99.90
25668;DHT22;18003;-33.830;151.202;2023-05-20T00:56:57;14.50;99.90
25668;DHT22;18003;-33.830;151.202;2023-05-20T00:59:28;14.50;99.90
25668;DHT22;18003;-33.830;151.202;2023-05-20T01:01:58;14.50;99.90
25668;DHT22;18003;-33.830;151.202;2023-05-20T01:04:28;14.60;99.90
25668;DHT22;18003;-33.830;151.202;2023-05-20T01:06:59;14.60;99.90
25668;DHT22;18003;-33.830;151.202;2023-05-20T01:09:29;14.60;99.90
25668;DHT22;18003;-33.830;151.202;2023-05-20T01:12:30;14.60;99.90
25668;DHT22;18003;-33.830;151.202;2023-05-20T01:15:12;14.60;99.90
25668;DHT22;18003;-33.830;151.202;2023-05-20T01:17:45;14.60;99.90
25668;DHT22;18003;-33.830;151.202;2023-05-20T01:20:15;14.70;99.90
25668;DHT22;18003;-33.830;151.202;2023-05-20T01:22:52;14.70;99.90
25668;DHT22;18003;-33.830;151.202;2023-05-20T01:25:23;14.70;99.90
25668;DHT22;18003;-33.830;151.202;2023-05-20T01:27:54;14.70;99.90
25668;DHT22;18003;-33.830;151.202;2023-05-20T01:30:26;14.70;99.90
25668;DHT22;18003;-33.830;151.202;2023-05-20T01:33:01;14.70;99.90
25668;DHT22;18003;-33.830;151.202;2023-05-20T01:35:26;14.70;99.90
25668;DHT22;18003;-33.830;151.202;2023-05-20T01:37:58;14.80;99.90
25668;DHT22;18003;-33.830;151.202;2023-05-20T01:40:29;14.80;99.90
25668;DHT22;18003;-33.830;151.202;2023-05-20T01:43:00;14.90;99.90
25668;DHT22;18003;-33.830;151.202;2023-05-20T01:45:31;14.90;99.90
25668;DHT22;18003;-33.830;151.202;2023-05-20T01:48:02;14.90;99.90
25668;DHT22;18003;-33.830;151.202;2023-05-20T01:50:32;14.90;99.90
25668;DHT22;18003;-33.830;151.202;2023-05-20T01:53:02;14.90;99.90
25668;DHT22;18003;-33.830;151.202;2023-05-20T01:55:33;15.00;99.90
25668;DHT22;18003;-33.830;151.202;2023-05-20T01:58:03;14.90;99.90
25668;DHT22;18003;-33.830;151.202;2023-05-20T02:00:34;15.00;99.90
25668;DHT22;18003;-33.830;151.202;2023-05-20T02:03:04;15.00;99.90
25668;DHT22;18003;-33.830;151.202;2023-05-20T02:05:34;15.00;99.90
25668;DHT22;18003;-33.830;151.202;2023-05-20T02:08:04;15.00;99.90
25668;DHT22;18003;-33.830;151.202;2023-05-20T02:10:34;15.10;99.90
25668;DHT22;18003;-33.830;151.202;2023-05-20T02:13:04;15.10;99.90
25668;DHT22;18003;-33.830;151.202;2023-05-20T02:15:34;15.10;99.90
25668;DHT22;18003;-33.830;151.202;2023-05-20T02:18:04;15.10;99.90
25668;DHT22;18003;-33.830;151.202;2023-05-20T02:20:38;15.10;99.90
25668;DHT22;18003;-33.830;151.202;2023-05-20T02:23:09;15.10;99.90
25668;DHT22;18003;-33.830;151.202;2023-05-20T02:25:40;15.20;99.90
25668;DHT22;18003;-33.830;151.202;2023-05-20T02:28:10;15.20;99.90
25668;DHT22;18003;-33.830;151.202;2023-05-20T02:30:43;15.20;99.90
25668;DHT22;18003;-33.830;151.202;2023-05-20T02:33:14;15.20;99.90
25668;DHT22;18003;-33.830;151.202;2023-05-20T02:35:43;15.20;99.90
25668;DHT22;18003;-33.830;151.202;2023-05-20T02:38:13;15.20;99.90
25668;DHT22;18003;-33.830;151.202;2023-05-20T02:40:44;15.20;99.90
25668;DHT22;18003;-33.830;151.202;2023-05-20T02:43:15;15.20;99.90
25668;DHT22;18003;-33.830;151.202;2023-05-20T02:45:45;15.20;99.90
25668;DHT22;18003;-33.830;151.202;2023-05-20T02:48:15;15.20;99.90
25668;DHT22;18003;-33.830;151.202;2023-05-20T02:50:46;15.30;99.90
25668;DHT22;18003;-33.830;151.202;2023-05-20T02:53:16;15.30;99.90
25668;DHT22;18003;-33.830;151.202;2023-05-20T02:55:49;15.30;99.90
25668;DHT22;18003;-33.830;151.202;2023-05-20T02:58:19;15.30;99.90
25668;DHT22;18003;-33.830;151.202;2023-05-20T03:00:50;15.30;99.90
25668;DHT22;18003;-33.830;151.202;2023-05-20T03:03:21;15.30;99.90
25668;DHT22;18003;-33.830;151.202;2023-05-20T03:05:51;15.30;99.90
25668;DHT22;18003;-33.830;151.202;2023-05-20T03:08:24;15.30;99.90
25668;DHT22;18003;-33.830;151.202;2023-05-20T03:10:54;15.30;99.90
25668;DHT22;18003;-33.830;151.202;2023-05-20T03:13:24;15.30;99.90
25668;DHT22;18003;-33.830;151.202;2023-05-20T03:15:55;15.30;99.90
25668;DHT22;18003;-33.830;151.202;2023-05-20T03:18:25;15.30;99.90
25668;DHT22;18003;-33.830;151.202;2023-05-20T03:21:00;15.40;99.90
25668;DHT22;18003;-33.830;151.202;2023-05-20T03:23:26;15.40;99.90
25668;DHT22;18003;-33.830;151.202;2023-05-20T03:25:56;15.40;99.90
25668;DHT22;18003;-33.830;151.202;2023-05-20T03:28:26;15.40;99.90
25668;DHT22;18003;-33.830;151.202;2023-05-20T03:30:56;15.40;99.90
25668;DHT22;18003;-33.830;151.202;2023-05-20T03:33:26;15.40;99.90
25668;DHT22;18003;-33.830;151.202;2023-05-20T03:35:57;15.40;99.90
25668;DHT22;18003;-33.830;151.202;2023-05-20T03:38:37;15.40;99.90
25668;DHT22;18003;-33.830;151.202;2023-05-20T03:41:00;15.40;99.90
25668;DHT22;18003;-33.830;151.202;2023-05-20T03:43:30;15.40;99.90
25668;DHT22;18003;-33.830;151.202;2023-05-20T03:46:00;15.40;99.90
25668;DHT22;18003;-33.830;151.202;2023-05-20T03:48:30;15.40;99.90
25668;DHT22;18003;-33.830;151.202;2023-05-20T03:51:00;15.40;99.90
25668;DHT22;18003;-33.830;151.202;2023-05-20T03:53:30;15.50;99.90
25668;DHT22;18003;-33.830;151.202;2023-05-20T03:56:00;15.50;99.90
25668;DHT22;18003;-33.830;151.202;2023-05-20T03:58:30;15.50;99.90
25668;DHT22;18003;-33.830;151.202;2023-05-20T04:01:00;15.50;99.90
25668;DHT22;18003;-33.830;151.202;2023-05-20T04:03:30;15.40;99.90
25668;DHT22;18003;-33.830;151.202;2023-05-20T04:06:01;15.50;99.90
25668;DHT22;18003;-33.830;151.202;2023-05-20T04:08:31;15.50;99.90
25668;DHT22;18003;-33.830;151.202;2023-05-20T04:11:02;15.50;99.90
25668;DHT22;18003;-33.830;151.202;2023-05-20T04:13:32;15.50;99.90
25668;DHT22;18003;-33.830;151.202;2023-05-20T04:16:02;15.50;99.90
25668;DHT22;18003;-33.830;151.202;2023-05-20T04:18:32;15.50;99.90
25668;DHT22;18003;-33.830;151.202;2023-05-20T04:21:04;15.50;99.90
25668;DHT22;18003;-33.830;151.202;2023-05-20T04:23:33;15.50;99.90
25668;DHT22;18003;-33.830;151.202;2023-05-20T04:26:03;15.50;99.90
25668;DHT22;18003;-33.830;151.202;2023-05-20T04:28:34;15.50;99.90
25668;DHT22;18003;-33.830;151.202;2023-05-20T04:31:05;15.50;99.90
25668;DHT22;18003;-33.830;151.202;2023-05-20T04:33:35;15.50;99.90
25668;DHT22;18003;-33.830;151.202;2023-05-20T04:36:08;15.50;99.90
25668;DHT22;18003;-33.830;151.202;2023-05-20T04:38:37;15.50;99.90
25668;DHT22;18003;-33.830;151.202;2023-05-20T04:41:09;15.50;99.90
25668;DHT22;18003;-33.830;151.202;2023-05-20T04:43:39;15.50;99.90
25668;DHT22;18003;-33.830;151.202;2023-05-20T04:46:10;15.40;99.90
25668;DHT22;18003;-33.830;151.202;2023-05-20T04:48:40;15.50;99.90
25668;DHT22;18003;-33.830;151.202;2023-05-20T04:51:10;15.40;99.90
25668;DHT22;18003;-33.830;151.202;2023-05-20T04:53:40;15.60;99.90
25668;DHT22;18003;-33.830;151.202;2023-05-20T04:56:11;15.80;99.90
25668;DHT22;18003;-33.830;151.202;2023-05-20T04:58:42;16.00;99.90
25668;DHT22;18003;-33.830;151.202;2023-05-20T05:01:12;16.10;99.90
25668;DHT22;18003;-33.830;151.202;2023-05-20T05:03:42;16.20;99.90
25668;DHT22;18003;-33.830;151.202;2023-05-20T05:06:12;16.30;99.90
25668;DHT22;18003;-33.830;151.202;2023-05-20T05:08:43;16.30;99.90
25668;DHT22;18003;-33.830;151.202;2023-05-20T05:11:14;16.40;99.90
25668;DHT22;18003;-33.830;151.202;2023-05-20T05:13:44;16.40;99.90
25668;DHT22;18003;-33.830;151.202;2023-05-20T05:16:14;16.40;99.90
25668;DHT22;18003;-33.830;151.202;2023-05-20T05:18:44;16.40;99.90
25668;DHT22;18003;-33.830;151.202;2023-05-20T05:21:14;16.50;99.90
25668;DHT22;18003;-33.830;151.202;2023-05-20T05:23:45;16.40;99.90
25668;DHT22;18003;-33.830;151.202;2023-05-20T05:26:15;16.40;99.90
25668;DHT22;18003;-33.830;151.202;2023-05-20T05:28:45;16.40;99.90
25668;DHT22;18003;-33.830;151.202;2023-05-20T05:31:15;16.40;99.90
25668;DHT22;18003;-33.830;151.202;2023-05-20T05:33:46;16.40;99.90
25668;DHT22;18003;-33.830;151.202;2023-05-20T05:36:16;16.50;99.90
25668;DHT22;18003;-33.830;151.202;2023-05-20T05:38:46;16.50;99.90
25668;DHT22;18003;-33.830;151.202;2023-05-20T05:41:16;16.50;99.90
25668;DHT22;18003;-33.830;151.202;2023-05-20T05:43:46;16.50;99.90
25668;DHT22;18003;-33.830;151.202;2023-05-20T05:46:16;16.50;99.90
25668;DHT22;18003;-33.830;151.202;2023-05-20T05:48:46;16.40;99.90
25668;DHT22;18003;-33.830;151.202;2023-05-20T05:51:17;16.50;99.90
25668;DHT22;18003;-33.830;151.202;2023-05-20T05:53:47;16.50;99.90
25668;DHT22;18003;-33.830;151.202;2023-05-20T05:56:17;16.40;99.90
25668;DHT22;18003;-33.830;151.202;2023-05-20T05:58:48;16.40;99.90
25668;DHT22;18003;-33.830;151.202;2023-05-20T06:01:19;16.40;99.90
25668;DHT22;18003;-33.830;151.202;2023-05-20T06:03:49;16.40;99.90
25668;DHT22;18003;-33.830;151.202;2023-05-20T06:06:25;16.40;99.90
25668;DHT22;18003;-33.830;151.202;2023-05-20T06:08:50;16.30;99.90
25668;DHT22;18003;-33.830;151.202;2023-05-20T06:11:21;16.40;99.90
25668;DHT22;18003;-33.830;151.202;2023-05-20T06:13:51;16.40;99.90
25668;DHT22;18003;-33.830;151.202;2023-05-20T06:16:22;16.40;99.80
25668;DHT22;18003;-33.830;151.202;2023-05-20T06:18:52;16.30;99.90
25668;DHT22;18003;-33.830;151.202;2023-05-20T06:21:40;16.30;99.90
25668;DHT22;18003;-33.830;151.202;2023-05-20T06:24:08;16.30;99.80
25668;DHT22;18003;-33.830;151.202;2023-05-20T06:26:38;16.30;99.40
25668;DHT22;18003;-33.830;151.202;2023-05-20T06:29:08;16.30;99.60
25668;DHT22;18003;-33.830;151.202;2023-05-20T06:31:39;16.30;99.60
25668;DHT22;18003;-33.830;151.202;2023-05-20T06:34:09;16.30;99.40
25668;DHT22;18003;-33.830;151.202;2023-05-20T06:36:39;16.30;99.60
25668;DHT22;18003;-33.830;151.202;2023-05-20T06:39:09;16.20;99.60
25668;DHT22;18003;-33.830;151.202;2023-05-20T06:41:40;16.30;99.40
25668;DHT22;18003;-33.830;151.202;2023-05-20T06:44:09;16.30;99.40
25668;DHT22;18003;-33.830;151.202;2023-05-20T06:46:42;16.20;99.40
25668;DHT22;18003;-33.830;151.202;2023-05-20T06:49:11;16.20;99.40
25668;DHT22;18003;-33.830;151.202;2023-05-20T06:51:44;16.20;99.30
25668;DHT22;18003;-33.830;151.202;2023-05-20T06:54:23;16.20;99.20
25668;DHT22;18003;-33.830;151.202;2023-05-20T06:56:49;16.20;99.10
25668;DHT22;18003;-33.830;151.202;2023-05-20T06:59:20;16.20;99.30
25668;DHT22;18003;-33.830;151.202;2023-05-20T07:01:53;16.30;99.20
25668;DHT22;18003;-33.830;151.202;2023-05-20T07:04:21;16.20;99.20
25668;DHT22;18003;-33.830;151.202;2023-05-20T07:06:51;16.20;99.40
25668;DHT22;18003;-33.830;151.202;2023-05-20T07:09:21;16.20;99.20
25668;DHT22;18003;-33.830;151.202;2023-05-20T07:11:51;16.20;99.40
25668;DHT22;18003;-33.830;151.202;2023-05-20T07:14:22;16.20;99.60
25668;DHT22;18003;-33.830;151.202;2023-05-20T07:16:52;16.10;99.40
25668;DHT22;18003;-33.830;151.202;2023-05-20T07:19:27;16.10;99.60
25668;DHT22;18003;-33.830;151.202;2023-05-20T07:21:53;16.10;99.50
25668;DHT22;18003;-33.830;151.202;2023-05-20T07:24:23;16.00;99.90
25668;DHT22;18003;-33.830;151.202;2023-05-20T07:26:53;15.70;99.90
25668;DHT22;18003;-33.830;151.202;2023-05-20T07:29:23;15.50;99.90
25668;DHT22;18003;-33.830;151.202;2023-05-20T07:31:53;15.30;99.90
25668;DHT22;18003;-33.830;151.202;2023-05-20T07:34:23;15.10;99.90
25668;DHT22;18003;-33.830;151.202;2023-05-20T07:36:53;15.00;99.90
25668;DHT22;18003;-33.830;151.202;2023-05-20T07:39:24;14.80;99.90
25668;DHT22;18003;-33.830;151.202;2023-05-20T07:41:54;14.60;99.90
25668;DHT22;18003;-33.830;151.202;2023-05-20T07:44:24;14.40;99.90
25668;DHT22;18003;-33.830;151.202;2023-05-20T07:46:54;14.40;99.90
25668;DHT22;18003;-33.830;151.202;2023-05-20T07:49:24;14.20;99.90
25668;DHT22;18003;-33.830;151.202;2023-05-20T07:51:54;14.10;99.90
25668;DHT22;18003;-33.830;151.202;2023-05-20T07:54:24;14.20;99.90
25668;DHT22;18003;-33.830;151.202;2023-05-20T07:56:54;14.20;99.90
25668;DHT22;18003;-33.830;151.202;2023-05-20T07:59:24;14.20;99.90
25668;DHT22;18003;-33.830;151.202;2023-05-20T08:01:55;14.20;99.90
25668;DHT22;18003;-33.830;151.202;2023-05-20T08:04:25;14.20;99.90
25668;DHT22;18003;-33.830;151.202;2023-05-20T08:06:55;14.00;99.90
25668;DHT22;18003;-33.830;151.202;2023-05-20T08:09:25;13.80;99.90
25668;DHT22;18003;-33.830;151.202;2023-05-20T08:11:55;13.70;99.90
25668;DHT22;18003;-33.830;151.202;2023-05-20T08:14:25;13.70;99.90
25668;DHT22;18003;-33.830;151.202;2023-05-20T08:16:56;13.70;99.90
25668;DHT22;18003;-33.830;151.202;2023-05-20T08:19:26;13.60;99.90
25668;DHT22;18003;-33.830;151.202;2023-05-20T08:21:56;13.60;99.90
25668;DHT22;18003;-33.830;151.202;2023-05-20T08:24:26;13.50;99.90
25668;DHT22;18003;-33.830;151.202;2023-05-20T08:26:56;13.40;99.90
25668;DHT22;18003;-33.830;151.202;2023-05-20T08:29:26;13.40;99.90
25668;DHT22;18003;-33.830;151.202;2023-05-20T08:31:56;13.50;99.90
25668;DHT22;18003;-33.830;151.202;2023-05-20T08:34:26;13.50;99.90
25668;DHT22;18003;-33.830;151.202;2023-05-20T08:36:56;13.50;99.90
25668;DHT22;18003;-33.830;151.202;2023-05-20T08:39:26;13.50;99.90
25668;DHT22;18003;-33.830;151.202;2023-05-20T08:41:57;13.60;99.90
25668;DHT22;18003;-33.830;151.202;2023-05-20T08:44:28;13.70;99.90
25668;DHT22;18003;-33.830;151.202;2023-05-20T08:46:58;13.70;99.90
25668;DHT22;18003;-33.830;151.202;2023-05-20T08:49:28;13.90;99.90
25668;DHT22;18003;-33.830;151.202;2023-05-20T08:51:59;14.00;99.90
25668;DHT22;18003;-33.830;151.202;2023-05-20T08:54:37;13.90;99.90
25668;DHT22;18003;-33.830;151.202;2023-05-20T08:57:01;14.00;99.90
25668;DHT22;18003;-33.830;151.202;2023-05-20T08:59:31;14.00;99.90
25668;DHT22;18003;-33.830;151.202;2023-05-20T09:02:01;13.90;99.90
25668;DHT22;18003;-33.830;151.202;2023-05-20T09:04:31;13.80;99.90
25668;DHT22;18003;-33.830;151.202;2023-05-20T09:07:01;13.80;99.90
25668;DHT22;18003;-33.830;151.202;2023-05-20T09:09:32;13.80;99.90
25668;DHT22;18003;-33.830;151.202;2023-05-20T09:12:03;13.80;99.90
25668;DHT22;18003;-33.830;151.202;2023-05-20T09:14:33;13.80;99.90
25668;DHT22;18003;-33.830;151.202;2023-05-20T09:17:04;13.70;99.90
25668;DHT22;18003;-33.830;151.202;2023-05-20T09:19:36;13.70;99.90
25668;DHT22;18003;-33.830;151.202;2023-05-20T09:22:06;13.70;99.90
25668;DHT22;18003;-33.830;151.202;2023-05-20T09:24:36;13.60;99.90
25668;DHT22;18003;-33.830;151.202;2023-05-20T09:27:06;13.50;99.90
25668;DHT22;18003;-33.830;151.202;2023-05-20T09:29:37;13.40;99.90
25668;DHT22;18003;-33.830;151.202;2023-05-20T09:32:07;13.40;99.90
25668;DHT22;18003;-33.830;151.202;2023-05-20T09:34:38;13.50;99.90
25668;DHT22;18003;-33.830;151.202;2023-05-20T09:37:10;13.60;99.90
25668;DHT22;18003;-33.830;151.202;2023-05-20T09:39:54;13.60;99.90
25668;DHT22;18003;-33.830;151.202;2023-05-20T09:42:40;13.50;99.90
25668;DHT22;18003;-33.830;151.202;2023-05-20T09:45:08;13.50;99.90
25668;DHT22;18003;-33.830;151.202;2023-05-20T09:47:39;13.20;99.90
25668;DHT22;18003;-33.830;151.202;2023-05-20T09:50:10;13.20;99.90
25668;DHT22;18003;-33.830;151.202;2023-05-20T09:52:42;13.10;99.90
25668;DHT22;18003;-33.830;151.202;2023-05-20T09:55:11;13.00;99.90
25668;DHT22;18003;-33.830;151.202;2023-05-20T09:57:42;13.00;99.90
25668;DHT22;18003;-33.830;151.202;2023-05-20T10:00:14;13.00;99.90
25668;DHT22;18003;-33.830;151.202;2023-05-20T10:02:43;13.00;99.90
25668;DHT22;18003;-33.830;151.202;2023-05-20T10:05:26;12.90;99.90
25668;DHT22;18003;-33.830;151.202;2023-05-20T10:08:00;12.90;99.90
25668;DHT22;18003;-33.830;151.202;2023-05-20T10:10:28;12.90;99.90
25668;DHT22;18003;-33.830;151.202;2023-05-20T10:16:22;13.50;99.90
25668;DHT22;18003;-33.830;151.202;2023-05-20T10:19:11;13.80;99.90
25668;DHT22;18003;-33.830;151.202;2023-05-20T10:21:39;13.90;99.90
25668;DHT22;18003;-33.830;151.202;2023-05-20T10:24:10;13.90;99.90
25668;DHT22;18003;-33.830;151.202;2023-05-20T10:26:41;14.00;99.90
25668;DHT22;18003;-33.830;151.202;2023-05-20T10:29:17;14.10;99.90
25668;DHT22;18003;-33.830;151.202;2023-05-20T10:31:48;14.00;99.90
25668;DHT22;18003;-33.830;151.202;2023-05-20T10:34:19;14.10;99.90
25668;DHT22;18003;-33.830;151.202;2023-05-20T10:36:57;14.10;99.90
25668;DHT22;18003;-33.830;151.202;2023-05-20T10:39:28;14.20;99.90
25668;DHT22;18003;-33.830;151.202;2023-05-20T10:42:10;14.10;99.90
25668;DHT22;18003;-33.830;151.202;2023-05-20T10:44:43;14.10;99.90
25668;DHT22;18003;-33.830;151.202;2023-05-20T10:47:14;14.20;99.90
25668;DHT22;18003;-33.830;151.202;2023-05-20T10:49:47;14.20;99.90
25668;DHT22;18003;-33.830;151.202;2023-05-20T10:52:20;14.20;99.90
25668;DHT22;18003;-33.830;151.202;2023-05-20T10:54:59;14.20;99.90
25668;DHT22;18003;-33.830;151.202;2023-05-20T10:57:30;14.20;99.90
25668;DHT22;18003;-33.830;151.202;2023-05-20T11:00:00;14.20;99.90
25668;DHT22;18003;-33.830;151.202;2023-05-20T11:02:31;14.20;99.90
25668;DHT22;18003;-33.830;151.202;2023-05-20T11:05:01;14.20;99.90
25668;DHT22;18003;-33.830;151.202;2023-05-20T11:07:31;14.20;99.90
25668;DHT22;18003;-33.830;151.202;2023-05-20T11:10:01;14.20;99.90
25668;DHT22;18003;-33.830;151.202;2023-05-20T11:12:32;14.30;99.90
25668;DHT22;18003;-33.830;151.202;2023-05-20T11:15:02;14.20;99.90
25668;DHT22;18003;-33.830;151.202;2023-05-20T11:17:32;14.20;99.90
25668;DHT22;18003;-33.830;151.202;2023-05-20T11:20:02;14.20;99.90
25668;DHT22;18003;-33.830;151.202;2023-05-20T11:22:32;14.20;99.90
25668;DHT22;18003;-33.830;151.202;2023-05-20T11:25:05;14.20;99.90
25668;DHT22;18003;-33.830;151.202;2023-05-20T11:27:37;14.20;99.90
25668;DHT22;18003;-33.830;151.202;2023-05-20T11:30:06;14.20;99.90
25668;DHT22;18003;-33.830;151.202;2023-05-20T11:32:37;14.20;99.90
25668;DHT22;18003;-33.830;151.202;2023-05-20T11:35:08;14.20;99.90
25668;DHT22;18003;-33.830;151.202;2023-05-20T11:37:38;14.20;99.90
25668;DHT22;18003;-33.830;151.202;2023-05-20T11:40:09;14.30;99.90
25668;DHT22;18003;-33.830;151.202;2023-05-20T11:42:42;14.30;99.90
25668;DHT22;18003;-33.830;151.202;2023-05-20T11:45:12;14.30;99.90
25668;DHT22;18003;-33.830;151.202;2023-05-20T11:47:41;14.30;99.90
25668;DHT22;18003;-33.830;151.202;2023-05-20T11:50:15;14.30;99.90
25668;DHT22;18003;-33.830;151.202;2023-05-20T11:52:43;14.30;99.90
25668;DHT22;18003;-33.830;151.202;2023-05-20T11:55:14;14.30;99.90
25668;DHT22;18003;-33.830;151.202;2023-05-20T11:57:44;14.30;99.90
25668;DHT22;18003;-33.830;151.202;2023-05-20T12:00:14;14.40;99.90
25668;DHT22;18003;-33.830;151.202;2023-05-20T12:02:44;14.30;99.90
25668;DHT22;18003;-33.830;151.202;2023-05-20T12:05:14;14.30;99.90
25668;DHT22;18003;-33.830;151.202;2023-05-20T12:07:45;14.30;99.90
25668;DHT22;18003;-33.830;151.202;2023-05-20T12:10:15;14.30;99.90
25668;DHT22;18003;-33.830;151.202;2023-05-20T12:12:45;14.40;99.90
25668;DHT22;18003;-33.830;151.202;2023-05-20T12:15:15;14.30;99.90
25668;DHT22;18003;-33.830;151.202;2023-05-20T12:17:46;14.40;99.90
25668;DHT22;18003;-33.830;151.202;2023-05-20T12:20:16;14.30;99.90
25668;DHT22;18003;-33.830;151.202;2023-05-20T12:22:47;14.00;99.90
25668;DHT22;18003;-33.830;151.202;2023-05-20T12:25:18;13.70;99.90
25668;DHT22;18003;-33.830;151.202;2023-05-20T12:27:49;13.50;99.90
25668;DHT22;18003;-33.830;151.202;2023-05-20T12:30:19;13.30;99.90
25668;DHT22;18003;-33.830;151.202;2023-05-20T12:32:50;13.10;99.90
25668;DHT22;18003;-33.830;151.202;2023-05-20T12:35:41;12.90;99.90
25668;DHT22;18003;-33.830;151.202;2023-05-20T12:38:07;12.70;99.90
25668;DHT22;18003;-33.830;151.202;2023-05-20T12:40:37;12.50;99.90
25668;DHT22;18003;-33.830;151.202;2023-05-20T12:43:11;12.60;99.90
25668;DHT22;18003;-33.830;151.202;2023-05-20T12:45:41;12.70;99.90
25668;DHT22;18003;-33.830;151.202;2023-05-20T12:48:12;12.70;99.90
25668;DHT22;18003;-33.830;151.202;2023-05-20T12:50:43;12.70;99.90
25668;DHT22;18003;-33.830;151.202;2023-05-20T12:53:28;12.70;99.90
25668;DHT22;18003;-33.830;151.202;2023-05-20T12:55:44;12.70;99.90
25668;DHT22;18003;-33.830;151.202;2023-05-20T12:58:14;12.70;99.90
25668;DHT22;18003;-33.830;151.202;2023-05-20T13:00:44;12.60;99.90
25668;DHT22;18003;-33.830;151.202;2023-05-20T13:03:29;12.60;99.90
25668;DHT22;18003;-33.830;151.202;2023-05-20T13:05:44;12.60;99.90
25668;DHT22;18003;-33.830;151.202;2023-05-20T13:08:21;12.60;99.90
25668;DHT22;18003;-33.830;151.202;2023-05-20T13:10:52;12.60;99.90
25668;DHT22;18003;-33.830;151.202;2023-05-20T13:13:23;12.60;99.90
25668;DHT22;18003;-33.830;151.202;2023-05-20T13:15:53;12.60;99.90
25668;DHT22;18003;-33.830;151.202;2023-05-20T13:18:23;12.60;99.90
25668;DHT22;18003;-33.830;151.202;2023-05-20T13:20:53;12.60;99.90
25668;DHT22;18003;-33.830;151.202;2023-05-20T13:23:23;12.50;99.90
25668;DHT22;18003;-33.830;151.202;2023-05-20T13:25:54;12.80;99.90
25668;DHT22;18003;-33.830;151.202;2023-05-20T13:28:25;13.20;99.90
25668;DHT22;18003;-33.830;151.202;2023-05-20T13:30:55;13.30;99.90
25668;DHT22;18003;-33.830;151.202;2023-05-20T13:33:29;13.40;99.90
25668;DHT22;18003;-33.830;151.202;2023-05-20T13:35:55;13.50;99.90
25668;DHT22;18003;-33.830;151.202;2023-05-20T13:38:26;13.60;99.90
25668;DHT22;18003;-33.830;151.202;2023-05-20T13:40:55;13.60;99.90
25668;DHT22;18003;-33.830;151.202;2023-05-20T13:43:26;13.70;99.90
25668;DHT22;18003;-33.830;151.202;2023-05-20T13:45:56;13.70;99.90
25668;DHT22;18003;-33.830;151.202;2023-05-20T13:48:26;13.70;99.90
25668;DHT22;18003;-33.830;151.202;2023-05-20T13:50:56;13.70;99.90
25668;DHT22;18003;-33.830;151.202;2023-05-20T13:53:26;13.80;99.90
25668;DHT22;18003;-33.830;151.202;2023-05-20T13:55:56;13.80;99.90
25668;DHT22;18003;-33.830;151.202;2023-05-20T13:58:26;13.80;99.90
25668;DHT22;18003;-33.830;151.202;2023-05-20T14:00:57;13.80;99.90
25668;DHT22;18003;-33.830;151.202;2023-05-20T14:03:26;13.80;99.90
25668;DHT22;18003;-33.830;151.202;2023-05-20T14:05:57;13.90;99.90
25668;DHT22;18003;-33.830;151.202;2023-05-20T14:08:27;13.90;99.90
25668;DHT22;18003;-33.830;151.202;2023-05-20T14:10:57;13.90;99.90
25668;DHT22;18003;-33.830;151.202;2023-05-20T14:13:27;13.90;99.90
25668;DHT22;18003;-33.830;151.202;2023-05-20T14:15:57;14.00;99.90
25668;DHT22;18003;-33.830;151.202;2023-05-20T14:18:26;13.90;99.90
25668;DHT22;18003;-33.830;151.202;2023-05-20T14:20:56;14.00;99.90
25668;DHT22;18003;-33.830;151.202;2023-05-20T14:23:26;14.00;99.90
25668;DHT22;18003;-33.830;151.202;2023-05-20T14:25:56;14.00;99.90
25668;DHT22;18003;-33.830;151.202;2023-05-20T14:28:26;14.00;99.90
25668;DHT22;18003;-33.830;151.202;2023-05-20T14:30:57;14.00;99.90
25668;DHT22;18003;-33.830;151.202;2023-05-20T14:33:27;14.00;99.90
25668;DHT22;18003;-33.830;151.202;2023-05-20T14:35:57;14.00;99.90
25668;DHT22;18003;-33.830;151.202;2023-05-20T14:38:27;14.00;99.90
25668;DHT22;18003;-33.830;151.202;2023-05-20T14:40:57;14.00;99.90
25668;DHT22;18003;-33.830;151.202;2023-05-20T14:43:27;14.10;99.90
25668;DHT22;18003;-33.830;151.202;2023-05-20T14:45:58;14.10;99.90
25668;DHT22;18003;-33.830;151.202;2023-05-20T14:48:28;14.10;99.90
25668;DHT22;18003;-33.830;151.202;2023-05-20T14:50:58;14.10;99.90
25668;DHT22;18003;-33.830;151.202;2023-05-20T14:53:28;14.10;99.90
25668;DHT22;18003;-33.830;151.202;2023-05-20T14:55:58;14.10;99.90
25668;DHT22;18003;-33.830;151.202;2023-05-20T14:58:28;14.10;99.90
25668;DHT22;18003;-33.830;151.202;2023-05-20T15:00:58;14.10;99.90
25668;DHT22;18003;-33.830;151.202;2023-05-20T15:03:29;14.10;99.90
25668;DHT22;18003;-33.830;151.202;2023-05-20T15:05:59;14.00;99.90
25668;DHT22;18003;-33.830;151.202;2023-05-20T15:08:29;14.00;99.90
25668;DHT22;18003;-33.830;151.202;2023-05-20T15:10:59;14.10;99.90
25668;DHT22;18003;-33.830;151.202;2023-05-20T15:13:29;14.10;99.90